Terminal Aerodrome Forecast
Issued by NWS

Home | Current Version | Previous Version | Text Only | Print | Product List | Glossary On
Versions: 1 2 3 4 5 6 7 8 9 10 11 12 13 14 15 16 17 18
000
FTUS42 KFFC 270527
TAFFTY
TAF
KFTY 270527Z 2706/2806 06003KT P6SM SCT070
     FM271400 09006KT P6SM SCT045
     FM271800 10009KT P6SM SCT060
     FM280000 08003KT P6SM FEW080=

USA.gov is the U.S. government's official web portal to all federal, state and local government web resources and services.